Time;durP1;ratioP1;P1;durP2;ratioP2;P2;SDS_P1;SDS_P2;PMS_P1;PMS_P2;Temp;Humidity;BMP_temperature;BMP_pressure;BME280_temperature;BME280_humidity;BME280_pressure;Samples;Min_cycle;Max_cycle;Signal;HPM_P1;HPM_P2
2024/02/19 00:02:36;0.00;0.00;0.62;0.00;0.00;0.62;11.87;9.13;;;23.20;28.20;;;;;;2261438;61;20431;-68
2024/02/19 00:05:23;0.00;0.00;0.62;0.00;0.00;0.62;9.03;7.80;;;23.10;28.10;;;;;;2261343;61;20823;-67
2024/02/19 00:08:08;0.00;0.00;0.62;0.00;0.00;0.62;9.57;8.17;;;23.20;28.20;;;;;;2261184;61;20385;-67
2024/02/19 00:10:53;0.00;0.00;0.62;0.00;0.00;0.62;9.80;7.90;;;23.20;28.20;;;;;;2261050;61;20369;-68
2024/02/19 00:13:37;0.00;0.00;0.62;0.00;0.00;0.62;10.70;8.00;;;23.10;28.10;;;;;;2260972;61;20400;-68
2024/02/19 00:16:23;0.00;0.00;0.62;0.00;0.00;0.62;9.73;7.40;;;23.20;28.20;;;;;;2261017;61;20400;-67
2024/02/19 00:19:08;0.00;0.00;0.62;0.00;0.00;0.62;10.00;8.07;;;23.20;28.20;;;;;;2258077;61;20388;-67
2024/02/19 00:21:52;0.00;0.00;0.62;0.00;0.00;0.62;8.67;7.20;;;23.20;28.20;;;;;;2260583;61;20369;-66
2024/02/19 00:24:39;0.00;0.00;0.62;0.00;0.00;0.62;9.80;7.83;;;23.10;28.10;;;;;;2260204;61;20957;-67
2024/02/19 00:27:23;0.00;0.00;0.62;0.00;0.00;0.62;7.67;6.83;;;23.20;28.20;;;;;;2260915;61;20360;-66
2024/02/19 00:30:09;0.00;0.00;0.62;0.00;0.00;0.62;7.83;6.37;;;23.20;28.20;;;;;;2259998;61;20439;-66
2024/02/19 00:32:55;0.00;0.00;0.62;0.00;0.00;0.62;8.50;6.37;;;23.10;28.10;;;;;;2260946;61;20918;-67
2024/02/19 00:35:40;0.00;0.00;0.62;0.00;0.00;0.62;9.20;6.37;;;23.20;28.20;;;;;;2260898;61;20393;-67
2024/02/19 00:38:25;0.00;0.00;0.62;0.00;0.00;0.62;7.90;6.33;;;23.10;28.10;;;;;;2260231;61;20424;-66
2024/02/19 00:41:09;0.00;0.00;0.62;0.00;0.00;0.62;9.67;6.90;;;23.10;28.10;;;;;;2260847;61;20443;-67
2024/02/19 00:43:55;0.00;0.00;0.62;0.00;0.00;0.62;8.80;6.30;;;23.20;28.70;;;;;;2260549;61;20393;-67
2024/02/19 00:46:40;0.00;0.00;0.62;0.00;0.00;0.62;8.93;6.50;;;23.20;28.20;;;;;;2260497;61;20817;-69
2024/02/19 00:49:26;0.00;0.00;0.62;0.00;0.00;0.62;6.90;6.10;;;23.20;28.20;;;;;;2260775;61;20436;-68
2024/02/19 00:52:11;0.00;0.00;0.62;0.00;0.00;0.62;7.80;6.10;;;23.20;28.20;;;;;;2260292;61;20531;-67
2024/02/19 00:54:59;0.00;0.00;0.62;0.00;0.00;0.62;8.13;6.50;;;23.20;28.20;;;;;;2260874;61;20408;-68
2024/02/19 00:57:44;0.00;0.00;0.62;0.00;0.00;0.62;6.33;5.43;;;23.20;28.20;;;;;;2260450;61;20381;-68
2024/02/19 01:00:28;0.00;0.00;0.62;0.00;0.00;0.62;8.03;5.73;;;23.20;28.20;;;;;;2261154;61;20376;-67
2024/02/19 01:03:13;0.00;0.00;0.62;0.00;0.00;0.62;7.73;5.63;;;23.20;28.20;;;;;;2260551;61;20903;-67
2024/02/19 01:05:59;0.00;0.00;0.62;0.00;0.00;0.62;6.90;5.70;;;23.10;28.10;;;;;;2261189;61;20888;-67
2024/02/19 01:08:43;0.00;0.00;0.62;0.00;0.00;0.62;5.53;4.37;;;23.10;28.10;;;;;;2260601;61;20779;-68
2024/02/19 01:11:28;0.00;0.00;0.62;0.00;0.00;0.62;7.20;5.27;;;23.10;28.10;;;;;;2260970;61;20369;-67
2024/02/19 01:14:12;0.00;0.00;0.62;0.00;0.00;0.62;7.07;5.57;;;23.10;28.10;;;;;;2259917;61;20365;-66
2024/02/19 01:16:57;0.00;0.00;0.62;0.00;0.00;0.62;5.67;4.73;;;23.10;28.10;;;;;;2260625;61;20344;-66
2024/02/19 01:19:44;0.00;0.00;0.62;0.00;0.00;0.62;5.57;4.80;;;23.10;28.10;;;;;;2261200;61;20454;-66
2024/02/19 01:22:30;0.00;0.00;0.62;0.00;0.00;0.62;6.47;5.23;;;23.10;28.10;;;;;;2261065;61;20393;-66
2024/02/19 01:25:15;0.00;0.00;0.62;0.00;0.00;0.62;7.23;5.57;;;23.10;28.70;;;;;;2261532;61;20903;-66
2024/02/19 01:28:00;0.00;0.00;0.62;0.00;0.00;0.62;5.97;4.97;;;23.10;28.10;;;;;;2262281;61;20429;-67
2024/02/19 01:30:45;0.00;0.00;0.62;0.00;0.00;0.62;6.07;4.47;;;23.10;28.10;;;;;;2260928;61;20484;-67
2024/02/19 01:33:29;0.00;0.00;0.62;0.00;0.00;0.62;5.47;4.20;;;23.10;28.10;;;;;;2264007;61;20392;-67
2024/02/19 01:36:14;0.00;0.00;0.62;0.00;0.00;0.62;6.13;4.60;;;23.10;28.10;;;;;;2263685;61;20953;-66
2024/02/19 01:39:00;0.00;0.00;0.62;0.00;0.00;0.62;6.50;5.27;;;23.10;28.10;;;;;;2263818;61;20439;-67
2024/02/19 01:41:45;0.00;0.00;0.62;0.00;0.00;0.62;6.80;4.67;;;23.10;28.10;;;;;;2265149;61;20357;-67
2024/02/19 01:44:30;0.00;0.00;0.62;0.00;0.00;0.62;7.80;5.87;;;23.20;28.20;;;;;;2260904;61;20350;-66
2024/02/19 01:47:15;0.00;0.00;0.62;0.00;0.00;0.62;7.80;6.57;;;23.10;28.10;;;;;;2264091;61;20441;-68
2024/02/19 01:49:59;0.00;0.00;0.62;0.00;0.00;0.62;8.93;7.30;;;23.10;28.10;;;;;;2263956;61;20388;-66
2024/02/19 01:52:45;0.00;0.00;0.62;0.00;0.00;0.62;13.77;8.40;;;23.10;28.10;;;;;;2263813;61;21095;-70
2024/02/19 01:55:34;0.00;0.00;0.62;0.00;0.00;0.62;10.20;9.00;;;23.10;28.10;;;;;;2263237;61;20349;-67
2024/02/19 01:58:19;0.00;0.00;0.62;0.00;0.00;0.62;11.93;10.07;;;23.10;28.20;;;;;;2262654;61;20349;-66
2024/02/19 02:01:06;0.00;0.00;0.62;0.00;0.00;0.62;11.60;9.00;;;23.10;28.20;;;;;;2260434;61;20380;-66
2024/02/19 02:03:52;0.00;0.00;0.62;0.00;0.00;0.62;10.80;9.47;;;23.10;28.10;;;;;;2260597;61;20385;-66
2024/02/19 02:06:37;0.00;0.00;0.62;0.00;0.00;0.62;11.47;9.70;;;23.10;28.10;;;;;;2260225;61;20365;-66
2024/02/19 02:09:23;0.00;0.00;0.62;0.00;0.00;0.62;12.73;10.13;;;23.10;28.10;;;;;;2260495;61;20462;-65
2024/02/19 02:12:09;0.00;0.00;0.62;0.00;0.00;0.62;10.13;9.07;;;23.10;28.10;;;;;;2260577;61;20533;-66
2024/02/19 02:14:53;0.00;0.00;0.62;0.00;0.00;0.62;10.60;9.50;;;23.10;28.10;;;;;;2260237;61;20684;-65
2024/02/19 02:17:40;0.00;0.00;0.62;0.00;0.00;0.62;10.93;9.30;;;23.10;28.10;;;;;;2260771;61;20866;-65
2024/02/19 02:20:26;0.00;0.00;0.62;0.00;0.00;0.62;10.97;8.43;;;23.10;28.10;;;;;;2260147;61;20392;-68
2024/02/19 02:23:12;0.00;0.00;0.62;0.00;0.00;0.62;11.57;9.13;;;23.10;28.10;;;;;;2259952;61;20381;-66
2024/02/19 02:25:57;0.00;0.00;0.62;0.00;0.00;0.62;9.43;8.40;;;23.10;28.10;;;;;;2260561;61;20365;-67
2024/02/19 02:28:43;0.00;0.00;0.62;0.00;0.00;0.62;10.73;8.70;;;23.10;28.10;;;;;;2259696;61;20385;-67
2024/02/19 02:31:29;0.00;0.00;0.62;0.00;0.00;0.62;11.00;8.80;;;23.10;28.10;;;;;;2260121;61;20408;-67
2024/02/19 02:34:14;0.00;0.00;0.62;0.00;0.00;0.62;8.80;7.90;;;23.10;28.10;;;;;;2260016;61;20465;-66
2024/02/19 02:36:58;0.00;0.00;0.62;0.00;0.00;0.62;9.60;8.23;;;23.10;28.10;;;;;;2666498;45;20357;-69
2024/02/19 02:39:43;0.00;0.00;0.62;0.00;0.00;0.62;9.20;8.10;;;23.10;28.10;;;;;;2257697;61;20364;-66
2024/02/19 02:42:27;0.00;0.00;0.62;0.00;0.00;0.62;10.53;8.80;;;23.10;28.10;;;;;;2259864;61;20930;-68
2024/02/19 02:45:14;0.00;0.00;0.62;0.00;0.00;0.62;9.47;8.30;;;23.10;28.10;;;;;;2256094;61;20369;-68
2024/02/19 02:47:58;0.00;0.00;0.62;0.00;0.00;0.62;8.90;7.00;;;23.10;28.10;;;;;;2259259;61;20767;-67
2024/02/19 02:50:43;0.00;0.00;0.62;0.00;0.00;0.62;9.87;8.27;;;23.10;28.10;;;;;;2259764;61;20786;-67
2024/02/19 02:53:28;0.00;0.00;0.62;0.00;0.00;0.62;8.87;6.97;;;23.10;28.10;;;;;;2259906;61;20962;-67
2024/02/19 02:56:18;0.00;0.00;0.62;0.00;0.00;0.62;8.83;6.77;;;23.10;28.20;;;;;;2259916;61;20452;-67
2024/02/19 02:59:02;0.00;0.00;0.62;0.00;0.00;0.62;8.13;7.03;;;23.10;28.10;;;;;;2259770;61;20361;-66
2024/02/19 03:01:49;0.00;0.00;0.62;0.00;0.00;0.62;7.75;6.80;;;23.10;28.10;;;;;;2267572;55;20369;31
2024/02/19 03:04:35;0.00;0.00;0.62;0.00;0.00;0.62;8.10;6.10;;;23.10;28.10;;;;;;2257672;61;20421;-67
2024/02/19 03:07:19;0.00;0.00;0.62;0.00;0.00;0.62;7.20;6.30;;;23.10;28.10;;;;;;2256428;61;20916;-67
2024/02/19 03:10:06;0.00;0.00;0.62;0.00;0.00;0.62;7.20;6.00;;;23.10;28.10;;;;;;2256852;61;20393;-67
2024/02/19 03:12:50;0.00;0.00;0.62;0.00;0.00;0.62;8.07;6.43;;;23.10;28.10;;;;;;2256148;61;20474;-66
2024/02/19 03:15:35;0.00;0.00;0.62;0.00;0.00;0.62;6.20;5.30;;;23.10;28.10;;;;;;2256550;61;20779;-66
2024/02/19 03:18:21;0.00;0.00;0.62;0.00;0.00;0.62;7.20;5.40;;;23.10;28.10;;;;;;2257013;61;20347;-66
2024/02/19 03:21:07;0.00;0.00;0.62;0.00;0.00;0.62;6.10;5.50;;;23.10;28.10;;;;;;2256617;61;20885;-67
2024/02/19 03:23:52;0.00;0.00;0.62;0.00;0.00;0.62;6.10;4.70;;;23.10;28.10;;;;;;2256901;61;20385;-66
2024/02/19 03:26:37;0.00;0.00;0.62;0.00;0.00;0.62;6.80;5.50;;;23.10;28.10;;;;;;2256806;61;20408;-66
2024/02/19 03:29:21;0.00;0.00;0.62;0.00;0.00;0.62;7.07;5.23;;;23.10;28.10;;;;;;2256566;61;20378;-66
2024/02/19 03:32:06;0.00;0.00;0.62;0.00;0.00;0.62;6.47;5.63;;;23.10;28.10;;;;;;2256614;61;20462;-66
2024/02/19 03:34:52;0.00;0.00;0.62;0.00;0.00;0.62;7.17;5.33;;;23.10;28.00;;;;;;2256906;61;20865;-66
2024/02/19 03:37:37;0.00;0.00;0.62;0.00;0.00;0.62;6.03;4.67;;;23.10;28.10;;;;;;2256672;61;20406;-67
2024/02/19 03:40:22;0.00;0.00;0.62;0.00;0.00;0.62;5.87;4.53;;;23.10;28.10;;;;;;2256604;61;20389;-66
2024/02/19 03:43:06;0.00;0.00;0.62;0.00;0.00;0.62;5.80;4.90;;;23.10;28.10;;;;;;2256653;61;20464;-66
2024/02/19 03:45:51;0.00;0.00;0.62;0.00;0.00;0.62;5.90;4.77;;;23.10;28.10;;;;;;2256450;61;20441;-66
2024/02/19 03:48:37;0.00;0.00;0.62;0.00;0.00;0.62;4.90;4.37;;;23.10;28.10;;;;;;2256692;61;20439;-66
2024/02/19 03:51:23;0.00;0.00;0.62;0.00;0.00;0.62;6.60;5.10;;;23.10;28.10;;;;;;2256798;61;20915;-66
2024/02/19 03:54:08;0.00;0.00;0.62;0.00;0.00;0.62;5.90;3.83;;;23.10;28.10;;;;;;2256397;61;20374;-67
2024/02/19 03:56:52;0.00;0.00;0.62;0.00;0.00;0.62;4.30;3.70;;;23.10;28.10;;;;;;2256062;61;20828;-66
2024/02/19 03:59:37;0.00;0.00;0.62;0.00;0.00;0.62;5.03;3.87;;;23.10;28.10;;;;;;2255875;61;21030;-66
2024/02/19 04:05:31;0.00;0.00;0.62;0.00;0.00;0.62;5.97;3.73;;;23.10;28.00;;;;;;2261337;61;20427;-65
2024/02/19 04:08:17;0.00;0.00;0.62;0.00;0.00;0.62;5.43;3.87;;;23.10;28.10;;;;;;2260880;61;20410;-66
2024/02/19 04:11:02;0.00;0.00;0.62;0.00;0.00;0.62;4.67;4.17;;;23.00;28.00;;;;;;2261151;61;20365;-66
2024/02/19 04:13:46;0.00;0.00;0.62;0.00;0.00;0.62;4.87;3.67;;;23.00;28.00;;;;;;2260555;61;20435;-68
2024/02/19 04:16:31;0.00;0.00;0.62;0.00;0.00;0.62;4.70;3.63;;;23.00;28.00;;;;;;2260492;61;20365;-67
2024/02/19 04:19:17;0.00;0.00;0.62;0.00;0.00;0.62;3.93;3.27;;;23.00;28.00;;;;;;2260457;61;20407;-69
2024/02/19 04:22:01;0.00;0.00;0.62;0.00;0.00;0.62;3.97;3.10;;;23.00;28.00;;;;;;2260357;61;20389;-68
2024/02/19 04:24:47;0.00;0.00;0.62;0.00;0.00;0.62;4.50;3.73;;;23.00;28.00;;;;;;2257291;61;20369;-67
2024/02/19 04:27:32;0.00;0.00;0.62;0.00;0.00;0.62;3.80;3.03;;;23.00;28.00;;;;;;2260209;61;20416;-67
2024/02/19 04:30:16;0.00;0.00;0.62;0.00;0.00;0.62;4.30;3.03;;;23.00;28.00;;;;;;2256896;61;20416;-66
2024/02/19 04:33:01;0.00;0.00;0.62;0.00;0.00;0.62;3.30;2.80;;;23.00;28.00;;;;;;2260497;61;20381;-66
2024/02/19 04:35:46;0.00;0.00;0.62;0.00;0.00;0.62;4.17;3.13;;;23.00;28.00;;;;;;2260109;61;20403;-66
2024/02/19 04:38:31;0.00;0.00;0.62;0.00;0.00;0.62;4.03;2.83;;;23.00;28.00;;;;;;2260259;61;20451;-66
2024/02/19 04:41:16;0.00;0.00;0.62;0.00;0.00;0.62;3.60;2.80;;;23.00;28.50;;;;;;2256955;61;20919;-70
2024/02/19 04:44:01;0.00;0.00;0.62;0.00;0.00;0.62;3.80;2.80;;;23.00;28.00;;;;;;2259853;61;20431;-69
2024/02/19 04:46:45;0.00;0.00;0.62;0.00;0.00;0.62;3.27;2.57;;;23.00;28.00;;;;;;2260070;61;20396;-66
2024/02/19 04:49:30;0.00;0.00;0.62;0.00;0.00;0.62;4.37;3.20;;;23.00;28.00;;;;;;2256909;61;20389;-66
2024/02/19 04:52:14;0.00;0.00;0.62;0.00;0.00;0.62;3.50;2.40;;;23.00;28.00;;;;;;2260388;61;20393;-70
2024/02/19 04:54:59;0.00;0.00;0.62;0.00;0.00;0.62;3.87;2.30;;;23.00;28.00;;;;;;2256997;61;20768;-66
2024/02/19 04:57:45;0.00;0.00;0.62;0.00;0.00;0.62;3.57;2.70;;;23.00;28.00;;;;;;2259842;61;20364;-67
2024/02/19 05:00:33;0.00;0.00;0.62;0.00;0.00;0.62;3.03;2.10;;;23.00;28.00;;;;;;2260279;61;20365;-67
2024/02/19 05:03:18;0.00;0.00;0.62;0.00;0.00;0.62;3.57;2.60;;;23.00;28.00;;;;;;2260252;61;20978;-67
2024/02/19 05:06:03;0.00;0.00;0.62;0.00;0.00;0.62;2.70;2.07;;;23.00;27.90;;;;;;2259864;61;20388;-67
2024/02/19 05:08:48;0.00;0.00;0.62;0.00;0.00;0.62;3.10;2.20;;;23.00;28.00;;;;;;2260212;61;20384;-67
2024/02/19 05:11:32;0.00;0.00;0.62;0.00;0.00;0.62;2.73;1.90;;;23.00;28.00;;;;;;2259815;61;20364;-67
2024/02/19 05:14:19;0.00;0.00;0.62;0.00;0.00;0.62;2.93;2.10;;;23.00;28.00;;;;;;2260168;61;20369;-68
2024/02/19 05:17:04;0.00;0.00;0.62;0.00;0.00;0.62;2.60;2.00;;;23.00;28.00;;;;;;2260105;61;20912;-67
2024/02/19 05:19:49;0.00;0.00;0.62;0.00;0.00;0.62;2.37;1.83;;;23.00;28.00;;;;;;2260444;61;20588;-67
2024/02/19 05:22:34;0.00;0.00;0.62;0.00;0.00;0.62;2.80;2.10;;;23.00;27.90;;;;;;2260224;61;20389;-67
2024/02/19 05:25:18;0.00;0.00;0.62;0.00;0.00;0.62;2.93;1.90;;;23.00;28.00;;;;;;2257071;61;20385;-67
2024/02/19 05:28:04;0.00;0.00;0.62;0.00;0.00;0.62;2.93;1.87;;;23.00;28.00;;;;;;2260534;61;20396;-67
2024/02/19 05:30:49;0.00;0.00;0.62;0.00;0.00;0.62;2.57;1.90;;;23.00;27.90;;;;;;2260329;61;20438;-66
2024/02/19 05:33:34;0.00;0.00;0.62;0.00;0.00;0.62;2.17;1.60;;;23.00;27.90;;;;;;2260114;61;20423;-66
2024/02/19 05:36:18;0.00;0.00;0.62;0.00;0.00;0.62;2.40;1.70;;;23.00;27.90;;;;;;2260460;61;20436;-66
2024/02/19 05:39:03;0.00;0.00;0.62;0.00;0.00;0.62;4.30;2.30;;;23.00;27.90;;;;;;2257103;61;20346;-66
2024/02/19 05:41:48;0.00;0.00;0.62;0.00;0.00;0.62;2.83;1.60;;;23.00;28.00;;;;;;2260283;61;20819;-66
2024/02/19 05:44:32;0.00;0.00;0.62;0.00;0.00;0.62;2.37;1.70;;;23.00;27.90;;;;;;2260344;61;20391;-67
2024/02/19 05:47:19;0.00;0.00;0.62;0.00;0.00;0.62;2.70;2.00;;;22.90;27.90;;;;;;2260526;61;20353;-67
2024/02/19 05:50:06;0.00;0.00;0.62;0.00;0.00;0.62;2.00;1.50;;;23.00;28.50;;;;;;2260154;61;20384;-67
2024/02/19 05:52:51;0.00;0.00;0.62;0.00;0.00;0.62;2.50;1.70;;;23.00;28.00;;;;;;2260531;61;20420;-67
2024/02/19 05:55:35;0.00;0.00;0.62;0.00;0.00;0.62;2.00;1.40;;;22.90;27.90;;;;;;2260271;61;20353;-67
2024/02/19 05:58:20;0.00;0.00;0.62;0.00;0.00;0.62;2.37;1.50;;;22.90;27.90;;;;;;2260416;61;20927;-66
2024/02/19 06:01:05;0.00;0.00;0.62;0.00;0.00;0.62;1.90;1.40;;;22.90;27.90;;;;;;2260499;61;20377;-66
2024/02/19 06:03:51;0.00;0.00;0.62;0.00;0.00;0.62;2.27;1.60;;;22.90;27.90;;;;;;2260089;61;20428;-66
2024/02/19 06:06:35;0.00;0.00;0.62;0.00;0.00;0.62;2.30;1.40;;;22.90;27.90;;;;;;2260303;61;20353;-66
2024/02/19 06:09:20;0.00;0.00;0.62;0.00;0.00;0.62;2.10;1.60;;;22.90;27.90;;;;;;2260481;61;20381;-66
2024/02/19 06:12:06;0.00;0.00;0.62;0.00;0.00;0.62;1.87;1.13;;;22.90;27.90;;;;;;2260096;61;20861;-65
2024/02/19 06:14:50;0.00;0.00;0.62;0.00;0.00;0.62;2.00;1.40;;;22.90;27.90;;;;;;2260440;61;20365;-66
2024/02/19 06:17:36;0.00;0.00;0.62;0.00;0.00;0.62;2.17;1.40;;;22.90;27.90;;;;;;2260014;61;20380;-66
2024/02/19 06:20:22;0.00;0.00;0.62;0.00;0.00;0.62;2.23;1.40;;;22.90;27.90;;;;;;2260437;61;20349;-66
2024/02/19 06:23:06;0.00;0.00;0.62;0.00;0.00;0.62;1.70;1.20;;;22.90;27.90;;;;;;2257201;61;20389;-66
2024/02/19 06:25:51;0.00;0.00;0.62;0.00;0.00;0.62;2.07;1.37;;;22.90;27.90;;;;;;2260180;61;20403;-66
2024/02/19 06:28:36;0.00;0.00;0.62;0.00;0.00;0.62;1.83;1.33;;;22.90;27.90;;;;;;2260453;61;20388;-66
2024/02/19 06:31:20;0.00;0.00;0.62;0.00;0.00;0.62;2.20;1.23;;;22.90;27.90;;;;;;2260343;61;20388;-70
2024/02/19 06:34:05;0.00;0.00;0.62;0.00;0.00;0.62;2.50;1.50;;;22.90;27.90;;;;;;2256908;61;20457;-66
2024/02/19 06:36:51;0.00;0.00;0.62;0.00;0.00;0.62;1.80;1.30;;;22.90;27.90;;;;;;2261139;61;20938;-67
2024/02/19 06:39:39;0.00;0.00;0.62;0.00;0.00;0.62;2.33;1.60;;;22.90;27.90;;;;;;2260847;61;20341;-65
2024/02/19 06:42:23;0.00;0.00;0.62;0.00;0.00;0.62;2.60;1.50;;;22.90;27.90;;;;;;2260784;61;20435;-68
2024/02/19 06:45:09;0.00;0.00;0.62;0.00;0.00;0.62;2.20;1.60;;;22.90;28.40;;;;;;2261062;61;20349;-65
2024/02/19 06:47:54;0.00;0.00;0.62;0.00;0.00;0.62;2.30;1.30;;;22.90;27.90;;;;;;2260907;61;20473;-65
2024/02/19 06:50:39;0.00;0.00;0.62;0.00;0.00;0.62;2.83;1.90;;;22.90;27.90;;;;;;2261154;61;20419;-66
2024/02/19 06:53:25;0.00;0.00;0.62;0.00;0.00;0.62;2.70;1.57;;;22.90;27.90;;;;;;2261038;61;20400;-66
2024/02/19 06:56:12;0.00;0.00;0.62;0.00;0.00;0.62;2.77;2.10;;;22.90;27.90;;;;;;2260696;61;20384;-66
2024/02/19 06:58:56;0.00;0.00;0.62;0.00;0.00;0.62;3.00;2.17;;;22.90;27.90;;;;;;2261026;61;20411;-66
2024/02/19 07:01:41;0.00;0.00;0.62;0.00;0.00;0.62;3.50;2.67;;;22.90;27.90;;;;;;2261199;61;20896;-66
2024/02/19 07:04:25;0.00;0.00;0.62;0.00;0.00;0.62;3.53;2.40;;;22.90;27.90;;;;;;2260914;61;20384;-66
2024/02/19 07:07:10;0.00;0.00;0.62;0.00;0.00;0.62;3.70;2.83;;;22.90;27.90;;;;;;2257887;61;20369;-66
2024/02/19 07:09:55;0.00;0.00;0.62;0.00;0.00;0.62;7.00;2.77;;;22.90;28.00;;;;;;2260721;61;20400;-66
2024/02/19 07:12:40;0.00;0.00;0.62;0.00;0.00;0.62;3.50;2.40;;;22.90;27.90;;;;;;2260763;61;20380;-66
2024/02/19 07:15:25;0.00;0.00;0.62;0.00;0.00;0.62;3.27;2.80;;;22.90;27.90;;;;;;2260957;61;20419;-66
2024/02/19 07:18:09;0.00;0.00;0.62;0.00;0.00;0.62;3.60;3.03;;;22.90;27.90;;;;;;2260877;61;20376;-66
2024/02/19 07:20:54;0.00;0.00;0.62;0.00;0.00;0.62;4.27;3.30;;;22.90;27.90;;;;;;2260916;61;20349;-69
2024/02/19 07:23:38;0.00;0.00;0.62;0.00;0.00;0.62;3.33;2.47;;;22.90;27.90;;;;;;2260538;61;20866;-66
2024/02/19 07:26:24;0.00;0.00;0.62;0.00;0.00;0.62;4.53;2.83;;;22.90;27.90;;;;;;2260548;61;20779;-66
2024/02/19 07:29:09;0.00;0.00;0.62;0.00;0.00;0.62;4.50;2.83;;;22.90;27.90;;;;;;2261020;61;20377;-65
2024/02/19 07:31:54;0.00;0.00;0.62;0.00;0.00;0.62;4.50;3.20;;;22.90;27.90;;;;;;2279845;39;20876;31
2024/02/19 07:34:38;0.00;0.00;0.62;0.00;0.00;0.62;3.53;2.97;;;22.90;27.90;;;;;;2257797;61;20407;-67
2024/02/19 07:37:23;0.00;0.00;0.62;0.00;0.00;0.62;4.10;3.00;;;22.90;27.90;;;;;;2256285;61;20890;-67
2024/02/19 07:40:09;0.00;0.00;0.62;0.00;0.00;0.62;4.70;3.47;;;22.90;27.90;;;;;;2255872;61;20886;-66
2024/02/19 07:42:55;0.00;0.00;0.62;0.00;0.00;0.62;5.10;3.10;;;22.80;27.90;;;;;;2256077;61;20423;-66
2024/02/19 07:45:40;0.00;0.00;0.62;0.00;0.00;0.62;4.30;2.97;;;22.80;27.90;;;;;;2255815;61;20374;-66
2024/02/19 07:48:24;0.00;0.00;0.62;0.00;0.00;0.62;4.60;3.57;;;22.80;27.90;;;;;;2256578;61;20367;-68
2024/02/19 07:51:09;0.00;0.00;0.62;0.00;0.00;0.62;4.33;3.20;;;22.90;28.00;;;;;;2255771;61;20366;-67
2024/02/19 07:56:56;0.00;0.00;0.62;0.00;0.00;0.62;4.73;3.80;;;22.80;27.90;;;;;;2266297;61;20430;-67
2024/02/19 07:59:42;0.00;0.00;0.62;0.00;0.00;0.62;4.33;3.80;;;22.80;27.90;;;;;;2263827;61;20450;-67
2024/02/19 08:02:26;0.00;0.00;0.62;0.00;0.00;0.62;5.63;4.10;;;22.80;27.90;;;;;;2263818;61;20396;-67
2024/02/19 08:05:11;0.00;0.00;0.62;0.00;0.00;0.62;3.90;3.17;;;22.80;27.90;;;;;;2260494;61;20408;-66
2024/02/19 08:07:56;0.00;0.00;0.62;0.00;0.00;0.62;4.70;3.37;;;22.80;27.90;;;;;;2260581;61;20416;-66
2024/02/19 08:10:41;0.00;0.00;0.62;0.00;0.00;0.62;3.77;3.10;;;22.80;27.90;;;;;;2260401;61;20408;-66
2024/02/19 08:13:25;0.00;0.00;0.62;0.00;0.00;0.62;4.77;3.63;;;22.80;27.90;;;;;;2260522;61;20408;-67
2024/02/19 08:16:11;0.00;0.00;0.62;0.00;0.00;0.62;5.30;3.80;;;22.80;27.90;;;;;;2260354;61;20484;-68
2024/02/19 08:18:56;0.00;0.00;0.62;0.00;0.00;0.62;4.80;3.87;;;22.90;28.00;;;;;;2260671;61;20353;-67
2024/02/19 08:21:42;0.00;0.00;0.62;0.00;0.00;0.62;5.07;3.87;;;22.80;27.90;;;;;;2260667;61;20353;-67
2024/02/19 08:24:26;0.00;0.00;0.62;0.00;0.00;0.62;4.70;3.97;;;22.80;27.90;;;;;;2260993;61;20354;-67
2024/02/19 08:27:11;0.00;0.00;0.62;0.00;0.00;0.62;4.67;4.00;;;22.80;27.90;;;;;;2261684;61;20412;-67
2024/02/19 08:29:56;0.00;0.00;0.62;0.00;0.00;0.62;4.90;4.00;;;22.90;28.00;;;;;;2260885;61;20459;-69
2024/02/19 08:32:42;0.00;0.00;0.62;0.00;0.00;0.62;5.37;4.50;;;22.80;27.90;;;;;;2260248;61;20511;-67
2024/02/19 08:35:27;0.00;0.00;0.62;0.00;0.00;0.62;5.30;4.40;;;22.80;27.90;;;;;;2260707;61;20837;-68
2024/02/19 08:38:12;0.00;0.00;0.62;0.00;0.00;0.62;4.73;4.00;;;22.80;27.90;;;;;;2260606;61;20475;-68
2024/02/19 08:40:57;0.00;0.00;0.62;0.00;0.00;0.62;4.77;3.90;;;22.80;27.90;;;;;;2260472;61;20342;-68
2024/02/19 08:43:41;0.00;0.00;0.62;0.00;0.00;0.62;6.00;4.00;;;22.80;27.90;;;;;;2260609;61;20527;-67
2024/02/19 08:46:26;0.00;0.00;0.62;0.00;0.00;0.62;5.13;4.30;;;22.80;27.90;;;;;;2260360;61;20349;-67
2024/02/19 08:49:12;0.00;0.00;0.62;0.00;0.00;0.62;5.40;4.10;;;22.80;27.90;;;;;;2260507;61;20914;-66
2024/02/19 08:51:56;0.00;0.00;0.62;0.00;0.00;0.62;5.17;4.17;;;22.80;27.90;;;;;;2257547;61;20863;-66
2024/02/19 08:54:41;0.00;0.00;0.62;0.00;0.00;0.62;4.97;4.33;;;22.80;27.90;;;;;;2260273;61;20810;-67
2024/02/19 08:57:26;0.00;0.00;0.62;0.00;0.00;0.62;5.10;4.10;;;22.80;27.90;;;;;;2260515;61;20454;-67
2024/02/19 09:00:12;0.00;0.00;0.62;0.00;0.00;0.62;4.03;3.37;;;22.80;27.90;;;;;;2260351;61;20410;-66
2024/02/19 09:02:57;0.00;0.00;0.62;0.00;0.00;0.62;4.70;4.00;;;22.80;27.90;;;;;;2260265;61;20436;-66
2024/02/19 09:05:43;0.00;0.00;0.62;0.00;0.00;0.62;4.97;3.67;;;22.80;27.90;;;;;;2260539;61;20377;-67
2024/02/19 09:08:28;0.00;0.00;0.62;0.00;0.00;0.62;6.43;3.50;;;22.90;27.90;;;;;;2260336;61;20433;-67
2024/02/19 09:11:12;0.00;0.00;0.62;0.00;0.00;0.62;5.97;4.10;;;22.80;27.90;;;;;;2260508;61;20412;-66
2024/02/19 09:13:57;0.00;0.00;0.62;0.00;0.00;0.62;5.23;3.80;;;22.90;27.90;;;;;;2260765;61;20377;-67
2024/02/19 09:16:42;0.00;0.00;0.62;0.00;0.00;0.62;4.27;3.47;;;22.80;27.90;;;;;;2260283;61;20368;-65
2024/02/19 09:19:27;0.00;0.00;0.62;0.00;0.00;0.62;4.87;3.10;;;22.90;27.90;;;;;;2260847;61;20420;-66
2024/02/19 09:22:14;0.00;0.00;0.62;0.00;0.00;0.62;3.77;2.83;;;22.90;27.90;;;;;;2260244;61;20435;-67
2024/02/19 09:24:59;0.00;0.00;0.62;0.00;0.00;0.62;4.40;3.60;;;22.90;27.90;;;;;;2260625;61;20914;-67
2024/02/19 09:27:44;0.00;0.00;0.62;0.00;0.00;0.62;3.93;3.20;;;22.90;27.90;;;;;;2260726;61;20395;-66
2024/02/19 09:30:29;0.00;0.00;0.62;0.00;0.00;0.62;4.33;3.63;;;22.90;28.00;;;;;;2260132;61;20412;-66
2024/02/19 09:33:13;0.00;0.00;0.62;0.00;0.00;0.62;3.80;3.17;;;22.90;27.90;;;;;;2260495;61;20377;-67
2024/02/19 09:35:58;0.00;0.00;0.62;0.00;0.00;0.62;4.20;3.13;;;22.90;27.90;;;;;;2260575;61;20818;-67
2024/02/19 09:38:45;0.00;0.00;0.62;0.00;0.00;0.62;3.50;2.60;;;22.90;27.90;;;;;;2259913;61;20361;-66
2024/02/19 09:41:29;0.00;0.00;0.62;0.00;0.00;0.62;4.10;3.20;;;22.90;27.90;;;;;;2261031;61;20779;-67
2024/02/19 09:44:14;0.00;0.00;0.62;0.00;0.00;0.62;6.60;3.20;;;22.90;27.90;;;;;;2260348;61;20365;-66
2024/02/19 09:47:02;0.00;0.00;0.62;0.00;0.00;0.62;4.73;3.03;;;22.90;28.00;;;;;;2259924;61;20411;-67
2024/02/19 09:49:50;0.00;0.00;0.62;0.00;0.00;0.62;3.80;2.70;;;22.90;27.90;;;;;;2259831;61;20400;-66
2024/02/19 09:52:36;0.00;0.00;0.62;0.00;0.00;0.62;3.90;3.00;;;22.90;28.00;;;;;;2260244;61;20428;-66
2024/02/19 09:55:22;0.00;0.00;0.62;0.00;0.00;0.62;4.10;3.00;;;22.90;27.90;;;;;;2260010;61;20361;-66
2024/02/19 09:58:09;0.00;0.00;0.62;0.00;0.00;0.62;5.20;3.33;;;22.90;27.90;;;;;;2260407;61;20395;-67
2024/02/19 10:00:55;0.00;0.00;0.62;0.00;0.00;0.62;3.83;2.90;;;22.90;27.90;;;;;;2256491;61;20416;-67
2024/02/19 10:03:39;0.00;0.00;0.62;0.00;0.00;0.62;3.60;2.63;;;22.90;28.00;;;;;;2257004;61;20419;-67
2024/02/19 10:06:34;0.00;0.00;0.62;0.00;0.00;0.62;3.73;2.60;;;22.90;28.00;;;;;;2260083;61;20388;-67
2024/02/19 10:09:20;0.00;0.00;0.62;0.00;0.00;0.62;3.73;3.00;;;23.00;28.00;;;;;;2260317;61;20385;-69
2024/02/19 10:12:07;0.00;0.00;0.62;0.00;0.00;0.62;4.40;2.90;;;23.00;28.00;;;;;;2260530;61;20477;-67
2024/02/19 10:14:52;0.00;0.00;0.62;0.00;0.00;0.62;3.70;2.90;;;23.00;28.00;;;;;;2261359;61;20935;-66
2024/02/19 10:17:36;0.00;0.00;0.62;0.00;0.00;0.62;3.83;2.60;;;23.00;28.00;;;;;;2261086;61;20408;-71
2024/02/19 10:20:21;0.00;0.00;0.62;0.00;0.00;0.62;3.63;3.00;;;23.00;28.00;;;;;;2261178;61;20414;-68
2024/02/19 10:23:06;0.00;0.00;0.62;0.00;0.00;0.62;6.63;2.70;;;23.00;28.00;;;;;;2260745;61;20444;-70
2024/02/19 10:25:51;0.00;0.00;0.62;0.00;0.00;0.62;4.33;2.47;;;23.00;28.00;;;;;;2260938;61;20364;-66
2024/02/19 10:28:39;0.00;0.00;0.62;0.00;0.00;0.62;3.07;2.30;;;23.10;28.60;;;;;;2260829;61;20373;-69
2024/02/19 10:31:25;0.00;0.00;0.62;0.00;0.00;0.62;5.97;2.87;;;23.10;28.10;;;;;;2261582;61;20415;-66
2024/02/19 10:34:13;0.00;0.00;0.62;0.00;0.00;0.62;3.83;2.70;;;23.10;28.00;;;;;;2262505;61;20423;-65
2024/02/19 10:36:58;0.00;0.00;0.62;0.00;0.00;0.62;3.17;2.30;;;23.10;28.00;;;;;;2260995;61;20472;-68
2024/02/19 10:39:43;0.00;0.00;0.62;0.00;0.00;0.62;3.10;2.33;;;23.10;28.60;;;;;;2260503;61;20870;-68
2024/02/19 10:42:29;0.00;0.00;0.62;0.00;0.00;0.62;3.70;2.23;;;23.10;28.00;;;;;;2261111;61;20833;-68
2024/02/19 10:45:17;0.00;0.00;0.62;0.00;0.00;0.62;5.30;2.37;;;23.10;28.00;;;;;;2260144;61;20414;-68
2024/02/19 10:48:03;0.00;0.00;0.62;0.00;0.00;0.62;3.70;2.67;;;23.10;28.00;;;;;;2262782;61;20796;-66
2024/02/19 10:50:49;0.00;0.00;0.62;0.00;0.00;0.62;2.90;2.00;;;23.20;28.00;;;;;;2263063;61;20385;-68
2024/02/19 10:53:36;0.00;0.00;0.62;0.00;0.00;0.62;3.03;2.30;;;23.10;28.00;;;;;;2260215;61;20471;-66
2024/02/19 10:56:20;0.00;0.00;0.62;0.00;0.00;0.62;4.57;2.47;;;23.20;28.00;;;;;;2263925;61;20380;-67
2024/02/19 10:59:08;0.00;0.00;0.62;0.00;0.00;0.62;4.00;2.80;;;23.20;28.00;;;;;;2263602;61;20371;-66